Capitol Logistics 714




SKRG
José María Córdova International Airport
Medellin, CO
KMIA
Miami International Airport
Miami, US

Route Details

Aircraft Information
Group: Boeing 767
Types: B762,B763
Route Data
Demand: H
Distance: 1213nm
Duration: 3h 29m
Recm'd Route: BUTAL UQ105 KILER UG430 UCA UA301 URSUS FLIPR5
Origin Wx: SKRG 242200Z 06005KT 9999 FEW017 BKN090 18/14 Q1022 NOSIG RMK A3020
Dest. Wx: KMIA 242153Z 11013KT 10SM SCT035 SCT250 29/20 A3001 RMK AO2 SLP162 T02940200 $
Notes:

Financial History
Total Freight: 473,129lbs
Average Load: 78,855lbs/flt
Fuel Used: 175,013lbs
Avg. Fuel Used: 29,169lbs/flt
Fuel Expense: $96,453
Avg. Fuel Expense: $16,075
Avg. Fuel Cost: $0.58/lbs
Total Gross Income: $1,056,465
Pilot Pay: $1,224
Total Expenses: $99,029
Total Revenue: $981,791
Average Revenue: $176,077.46